KCOM

Coleman Municipal Airport

Coleman, Texas, USA
METAR KCOM 191655Z AUTO 24009KT 10SM SCT120 30/19 A2997 RMK AO2 T02950190
Observed Flight Rules
Aug-19 @ 16:55 UTC (18 minutes ago) Visual Flight Rules
Wind Visibility Clouds
240° at 9 knots 10 miles
  • Scattered at 12,000' AGL
Temperatures Readings
Current 30°C / 86°F
Dewpoint 19°C / 66°F
Humidity 52%
Altimeter 29.97" Hg
Pressure 1015 hPa
Elevation 517
METAR KCOM 191655Z AUTO 24009KT 10SM SCT120 30/19 A2997 RMK AO2 T02950190
Observed Flight Rules
Aug-19 @ 16:55 UTC
(18 minutes ago)
VFR
Wind Visibility
240° at 9 knots 10 miles
Clouds
  • Scattered at 12,000' AGL
Temperature Dewpoint
30°C / 86°F 19°C / 66°F
Humidity Altimeter Pressure
52% 29.97" Hg 1015 hPa